• Join FlightAware (Why Join?)
  • Login
  • US Flag 
07:04AM EST


 

Airport Tracker/Info


-or-


 

Live Flight TrackerFlight Track Log ✈ ASQ3843 ✈ 03-Nov-2013 ✈ KCMH - KIAD

Flight Track Log - Related Links

Times and Time Zones

All times are in EST time to prevent confusion due to time zone crossing. See the ASQ3843 flight status page for this flight to view local times or setup timezone preferences in your user account.

Time Position Orientation Groundspeed Altitude Reporting Facility
EST Latitude Longitude Course Direction KTS MPH feet Rate Location/Type
08:21PM 40.0072 -82.9681 276° West 185 213 2,700  Level Indianapolis Center
08:22PM 40.0097 -83.0069 275° West 200 230 4,000 2,100 Climbing Indianapolis Center
08:23PM 39.9861 -83.0550 237° Southwest 257 296 5,300 1,920 Climbing Indianapolis Center
08:23PM 39.9658 -83.0528 175° South 231 266 6,000 1,920 Climbing Indianapolis Center
08:24PM 39.9016 -82.3308 90° East  Level Estimated
08:24PM 39.9108 -83.0058 147° Southeast 264 304 7,900  Level Indianapolis Center
08:25PM 39.8773 -82.1907 84° East  Level Estimated
08:25PM 39.9047 -82.9042 94° East 280 322 10,000  Level Indianapolis Center
08:26PM 39.8529 -82.0507 90° East  Level Estimated
08:26PM 39.8969 -82.7903 95° East 305 351 11,100  Level Indianapolis Center
08:27PM 39.9058 -82.6611 85° East 350 403 12,100 1,200 Climbing Indianapolis Center
08:28PM 39.9150 -82.5256 85° East 368 423 13,600 1,380 Climbing Indianapolis Center
08:29PM 39.9231 -82.3903 86° East 378 435 15,000 1,260 Climbing Indianapolis Center
08:30PM 39.9350 -82.2228 85° East 388 447 16,300 1,140 Climbing Indianapolis Center
08:31PM 39.9439 -82.0781 85° East 399 459 17,400 840 Climbing Indianapolis Center
08:32PM 39.9536 -81.9317 85° East 405 466 18,100 840 Climbing Indianapolis Center
08:33PM 39.9619 -81.7814 86° East 414 476 19,200 960 Climbing Indianapolis Center
08:34PM 39.9714 -81.6211 86° East 422 486 20,200 1,020 Climbing Indianapolis Center
08:35PM 39.9808 -81.4622 86° East 433 498 21,400 1,020 Climbing Indianapolis Center
08:36PM 39.9900 -81.3022 86° East 438 504 22,300 1,080 Climbing Indianapolis Center
08:37PM 39.9981 -81.1414 86° East 442 509 23,700 1,260 Climbing Indianapolis Center
08:38PM 39.9603 -80.9861 108° East 451 519 25,000 1,260 Climbing Indianapolis Center
08:39PM 39.9078 -80.8381 115° Southeast 446 513 26,400 900 Climbing Indianapolis Center
08:41PM 39.8506 -80.6664 113° Southeast 443 510 27,000 240 Climbing Cleveland Center
08:42PM 39.7953 -80.5128 115° Southeast 469 540 27,000  Level Cleveland Center
08:43PM 39.7383 -80.3550 115° Southeast 483 556 27,000  Level Cleveland Center
08:44PM 39.6797 -80.1942 115° Southeast 496 571 27,000  Level Cleveland Center
08:45PM 39.6203 -80.0317 115° Southeast 502 578 27,000  Level Cleveland Center
08:45PM 39.5742 -79.8994 114° Southeast 497 572 27,000  Level Washington Center
08:46PM 39.5344 -79.7219 106° East 497 572 27,000  Level Washington Center
08:47PM 39.5031 -79.5453 103° East 497 572 27,000  Level Washington Center
08:48PM 39.4711 -79.3661 103° East 502 578 27,000 -900 Level Washington Center
08:49PM 39.4314 -79.1706 105° East 507 583 25,300 -2,220 Descending Washington Center
08:50PM 39.4028 -79.0081 103° East 488 562 22,600 -2,580 Descending Washington Center
08:51PM 39.3736 -78.8508 103° East 467 537 20,200 -2,040 Descending Washington Center
08:52PM 39.3522 -78.7211 102° East 435 501 18,600 -1,860 Descending Washington Center
08:53PM 39.3264 -78.5858 104° East 407 468 16,500 -2,220 Descending Washington Center
08:54PM 39.3025 -78.4508 103° East 388 447 14,100 -2,220 Descending Washington Center
08:55PM 39.2719 -78.3342 109° East 363 418 12,000 -1,560 Descending Washington Center
08:56PM 39.2197 -78.2411 126° Southeast 331 381 11,000 -1,020 Descending Washington Center
08:57PM 39.1717 -78.1511 125° Southeast 320 368 10,000 -1,020 Descending Washington Center
08:58PM 39.1256 -78.0639 124° Southeast 305 351 9,100 -840 Descending Washington Center
08:59PM 39.0814 -77.9794 124° Southeast 294 338 8,400 -900 Descending Washington Center
09:00PM 39.0353 -77.8953 125° Southeast 294 338 7,400 -1,020 Descending Washington Center
09:01PM 38.9908 -77.8083 123° Southeast 283 326 6,400 -720 Descending Washington Center
09:02PM 38.9633 -77.7219 112° Southeast 260 299 6,000 -240 Descending Washington Center
09:03PM 38.9442 -77.6308 105° East 260 299 6,000  Level Washington Center
09:04PM 38.9000 -77.6000 151° Southeast 262 302 6,000  Level Potomac TRACON
09:05PM 38.8333 -77.5667 159° South 236 272 6,000 -120 Level Potomac TRACON
09:06PM 38.7667 -77.5833 191° South 242 278 5,800 -600 Descending Potomac TRACON
09:07PM 38.7167 -77.5500 153° Southeast 246 283 4,900 -960 Descending Potomac TRACON
09:08PM 38.7500 -77.4833 57° Northeast 208 239 3,900 -1,020 Descending Potomac TRACON
09:09PM 38.8000 -77.4667 15° North 177 204 2,900 -900 Descending Potomac TRACON
09:10PM 38.8333 -77.4667 360° North 163 188 2,300 -720 Descending Potomac TRACON
09:11PM 38.8667 -77.4667 360° North 126 145 1,700 -720 Descending Potomac TRACON
09:12PM 38.9167 -77.4667 360° North 116 133 900 -780 Descending Potomac TRACON